sensor_id;sensor_type;location;lat;lon;timestamp;P1;durP1;ratioP1;P2;durP2;ratioP2
3755;SDS011;1893;52.526;13.360;2022-07-29T00:01:32;5.03;;;3.07;;
3755;SDS011;1893;52.526;13.360;2022-07-29T00:03:57;5.40;;;3.50;;
3755;SDS011;1893;52.526;13.360;2022-07-29T00:06:23;10.93;;;3.77;;
3755;SDS011;1893;52.526;13.360;2022-07-29T00:08:48;5.30;;;3.90;;
3755;SDS011;1893;52.526;13.360;2022-07-29T00:11:14;4.40;;;3.60;;
3755;SDS011;1893;52.526;13.360;2022-07-29T00:13:39;6.23;;;3.73;;
3755;SDS011;1893;52.526;13.360;2022-07-29T00:16:05;7.30;;;3.90;;
3755;SDS011;1893;52.526;13.360;2022-07-29T00:18:31;5.90;;;4.73;;
3755;SDS011;1893;52.526;13.360;2022-07-29T00:20:56;4.37;;;3.57;;
3755;SDS011;1893;52.526;13.360;2022-07-29T00:23:22;9.63;;;4.50;;
3755;SDS011;1893;52.526;13.360;2022-07-29T00:25:47;5.40;;;3.83;;
3755;SDS011;1893;52.526;13.360;2022-07-29T00:28:13;4.60;;;3.73;;
3755;SDS011;1893;52.526;13.360;2022-07-29T00:30:39;7.30;;;4.40;;
3755;SDS011;1893;52.526;13.360;2022-07-29T00:33:06;7.20;;;4.10;;
3755;SDS011;1893;52.526;13.360;2022-07-29T00:35:32;7.30;;;3.70;;
3755;SDS011;1893;52.526;13.360;2022-07-29T00:38:10;7.67;;;3.87;;
3755;SDS011;1893;52.526;13.360;2022-07-29T00:40:37;5.30;;;4.20;;
3755;SDS011;1893;52.526;13.360;2022-07-29T00:43:03;8.10;;;4.33;;
3755;SDS011;1893;52.526;13.360;2022-07-29T00:45:29;6.90;;;4.13;;
3755;SDS011;1893;52.526;13.360;2022-07-29T00:47:55;8.90;;;4.30;;
3755;SDS011;1893;52.526;13.360;2022-07-29T00:50:21;9.07;;;4.47;;
3755;SDS011;1893;52.526;13.360;2022-07-29T00:52:46;11.00;;;4.27;;
3755;SDS011;1893;52.526;13.360;2022-07-29T00:55:13;5.90;;;3.97;;
3755;SDS011;1893;52.526;13.360;2022-07-29T00:57:40;8.80;;;4.00;;
3755;SDS011;1893;52.526;13.360;2022-07-29T01:00:07;10.70;;;4.57;;
3755;SDS011;1893;52.526;13.360;2022-07-29T01:02:35;4.13;;;3.73;;
3755;SDS011;1893;52.526;13.360;2022-07-29T01:05:01;6.40;;;4.50;;
3755;SDS011;1893;52.526;13.360;2022-07-29T01:07:28;6.53;;;4.47;;
3755;SDS011;1893;52.526;13.360;2022-07-29T01:09:56;5.00;;;3.97;;
3755;SDS011;1893;52.526;13.360;2022-07-29T01:12:26;13.07;;;4.40;;
3755;SDS011;1893;52.526;13.360;2022-07-29T01:14:53;6.33;;;4.63;;
3755;SDS011;1893;52.526;13.360;2022-07-29T01:31:20;4.67;;;3.40;;
3755;SDS011;1893;52.526;13.360;2022-07-29T01:34:07;10.80;;;3.70;;
3755;SDS011;1893;52.526;13.360;2022-07-29T01:36:45;6.83;;;4.43;;
3755;SDS011;1893;52.526;13.360;2022-07-29T01:39:26;5.97;;;4.10;;
3755;SDS011;1893;52.526;13.360;2022-07-29T01:44:45;4.40;;;3.70;;
3755;SDS011;1893;52.526;13.360;2022-07-29T01:47:19;5.77;;;4.20;;
3755;SDS011;1893;52.526;13.360;2022-07-29T01:49:49;6.70;;;4.93;;
3755;SDS011;1893;52.526;13.360;2022-07-29T01:52:21;7.40;;;3.87;;
3755;SDS011;1893;52.526;13.360;2022-07-29T01:55:03;6.93;;;3.60;;
3755;SDS011;1893;52.526;13.360;2022-07-29T01:57:34;4.40;;;3.47;;
3755;SDS011;1893;52.526;13.360;2022-07-29T02:00:03;10.83;;;4.50;;
3755;SDS011;1893;52.526;13.360;2022-07-29T02:02:30;5.80;;;3.90;;
3755;SDS011;1893;52.526;13.360;2022-07-29T02:04:57;9.27;;;4.30;;
3755;SDS011;1893;52.526;13.360;2022-07-29T02:07:25;6.50;;;4.37;;
3755;SDS011;1893;52.526;13.360;2022-07-29T02:09:54;6.67;;;3.50;;
3755;SDS011;1893;52.526;13.360;2022-07-29T02:12:21;5.70;;;3.57;;
3755;SDS011;1893;52.526;13.360;2022-07-29T02:14:50;9.90;;;3.77;;
3755;SDS011;1893;52.526;13.360;2022-07-29T02:17:21;3.67;;;3.33;;
3755;SDS011;1893;52.526;13.360;2022-07-29T02:19:50;9.63;;;3.60;;
3755;SDS011;1893;52.526;13.360;2022-07-29T02:22:20;7.60;;;3.60;;
3755;SDS011;1893;52.526;13.360;2022-07-29T02:24:47;5.43;;;3.80;;
3755;SDS011;1893;52.526;13.360;2022-07-29T02:27:15;5.13;;;3.47;;
3755;SDS011;1893;52.526;13.360;2022-07-29T02:29:42;6.27;;;4.00;;
3755;SDS011;1893;52.526;13.360;2022-07-29T02:32:10;4.90;;;3.90;;
3755;SDS011;1893;52.526;13.360;2022-07-29T02:34:38;4.87;;;4.17;;
3755;SDS011;1893;52.526;13.360;2022-07-29T02:37:04;6.10;;;3.87;;
3755;SDS011;1893;52.526;13.360;2022-07-29T02:39:30;7.97;;;3.90;;
3755;SDS011;1893;52.526;13.360;2022-07-29T02:42:07;7.50;;;3.87;;
3755;SDS011;1893;52.526;13.360;2022-07-29T02:44:35;5.77;;;3.50;;
3755;SDS011;1893;52.526;13.360;2022-07-29T02:49:38;6.10;;;3.80;;
3755;SDS011;1893;52.526;13.360;2022-07-29T02:52:24;5.87;;;3.70;;
3755;SDS011;1893;52.526;13.360;2022-07-29T02:57:46;4.50;;;3.80;;
3755;SDS011;1893;52.526;13.360;2022-07-29T03:00:18;7.57;;;4.97;;
3755;SDS011;1893;52.526;13.360;2022-07-29T03:02:45;7.10;;;3.53;;
3755;SDS011;1893;52.526;13.360;2022-07-29T03:05:18;6.43;;;3.73;;
3755;SDS011;1893;52.526;13.360;2022-07-29T03:07:46;6.50;;;3.53;;
3755;SDS011;1893;52.526;13.360;2022-07-29T03:10:16;5.43;;;3.40;;
3755;SDS011;1893;52.526;13.360;2022-07-29T03:12:43;3.90;;;3.50;;
3755;SDS011;1893;52.526;13.360;2022-07-29T03:15:09;4.97;;;3.63;;
3755;SDS011;1893;52.526;13.360;2022-07-29T03:17:35;4.57;;;3.87;;
3755;SDS011;1893;52.526;13.360;2022-07-29T03:20:02;6.67;;;3.60;;
3755;SDS011;1893;52.526;13.360;2022-07-29T03:22:28;9.90;;;3.60;;
3755;SDS011;1893;52.526;13.360;2022-07-29T03:24:54;6.53;;;3.67;;
3755;SDS011;1893;52.526;13.360;2022-07-29T03:27:20;7.40;;;3.73;;
3755;SDS011;1893;52.526;13.360;2022-07-29T03:29:46;4.90;;;3.30;;
3755;SDS011;1893;52.526;13.360;2022-07-29T03:32:11;6.07;;;3.77;;
3755;SDS011;1893;52.526;13.360;2022-07-29T03:34:37;4.43;;;4.03;;
3755;SDS011;1893;52.526;13.360;2022-07-29T03:37:04;5.37;;;3.27;;
3755;SDS011;1893;52.526;13.360;2022-07-29T03:39:31;7.27;;;4.03;;
3755;SDS011;1893;52.526;13.360;2022-07-29T03:41:59;4.97;;;3.90;;
3755;SDS011;1893;52.526;13.360;2022-07-29T03:44:26;8.83;;;3.50;;
3755;SDS011;1893;52.526;13.360;2022-07-29T03:46:53;4.57;;;2.93;;
3755;SDS011;1893;52.526;13.360;2022-07-29T03:49:21;8.03;;;4.13;;
3755;SDS011;1893;52.526;13.360;2022-07-29T03:51:48;6.13;;;4.47;;
3755;SDS011;1893;52.526;13.360;2022-07-29T03:54:14;9.10;;;3.80;;
3755;SDS011;1893;52.526;13.360;2022-07-29T03:56:42;3.97;;;3.20;;
3755;SDS011;1893;52.526;13.360;2022-07-29T03:59:13;8.00;;;4.00;;
3755;SDS011;1893;52.526;13.360;2022-07-29T04:01:40;5.03;;;3.40;;
3755;SDS011;1893;52.526;13.360;2022-07-29T04:04:06;6.67;;;3.60;;
3755;SDS011;1893;52.526;13.360;2022-07-29T04:06:39;5.03;;;3.50;;
3755;SDS011;1893;52.526;13.360;2022-07-29T04:09:05;5.77;;;4.10;;
3755;SDS011;1893;52.526;13.360;2022-07-29T04:11:31;6.37;;;4.23;;
3755;SDS011;1893;52.526;13.360;2022-07-29T04:13:57;7.47;;;3.20;;
3755;SDS011;1893;52.526;13.360;2022-07-29T04:16:22;7.43;;;4.00;;
3755;SDS011;1893;52.526;13.360;2022-07-29T04:18:48;10.93;;;4.07;;
3755;SDS011;1893;52.526;13.360;2022-07-29T04:21:13;11.07;;;3.43;;
3755;SDS011;1893;52.526;13.360;2022-07-29T04:23:39;6.80;;;3.67;;
3755;SDS011;1893;52.526;13.360;2022-07-29T04:26:05;6.07;;;3.97;;
3755;SDS011;1893;52.526;13.360;2022-07-29T04:28:34;6.00;;;3.80;;
3755;SDS011;1893;52.526;13.360;2022-07-29T04:31:00;8.63;;;4.50;;
3755;SDS011;1893;52.526;13.360;2022-07-29T04:33:25;4.73;;;3.47;;
3755;SDS011;1893;52.526;13.360;2022-07-29T04:35:51;9.37;;;4.03;;
3755;SDS011;1893;52.526;13.360;2022-07-29T04:38:16;6.97;;;3.67;;
3755;SDS011;1893;52.526;13.360;2022-07-29T04:40:42;10.70;;;3.80;;
3755;SDS011;1893;52.526;13.360;2022-07-29T04:43:08;4.57;;;3.70;;
3755;SDS011;1893;52.526;13.360;2022-07-29T04:45:33;9.50;;;3.80;;
3755;SDS011;1893;52.526;13.360;2022-07-29T04:47:59;9.80;;;4.13;;
3755;SDS011;1893;52.526;13.360;2022-07-29T04:50:25;5.43;;;3.10;;
3755;SDS011;1893;52.526;13.360;2022-07-29T04:52:50;4.33;;;3.30;;
3755;SDS011;1893;52.526;13.360;2022-07-29T04:55:16;4.20;;;3.37;;
3755;SDS011;1893;52.526;13.360;2022-07-29T04:57:42;7.63;;;4.00;;
3755;SDS011;1893;52.526;13.360;2022-07-29T05:00:07;5.73;;;3.17;;
3755;SDS011;1893;52.526;13.360;2022-07-29T05:02:34;7.50;;;3.00;;
3755;SDS011;1893;52.526;13.360;2022-07-29T05:04:59;6.60;;;3.77;;
3755;SDS011;1893;52.526;13.360;2022-07-29T05:07:25;5.53;;;3.97;;
3755;SDS011;1893;52.526;13.360;2022-07-29T05:09:50;7.97;;;3.30;;
3755;SDS011;1893;52.526;13.360;2022-07-29T05:12:16;6.00;;;2.90;;
3755;SDS011;1893;52.526;13.360;2022-07-29T05:14:41;10.60;;;3.27;;
3755;SDS011;1893;52.526;13.360;2022-07-29T05:17:07;5.60;;;4.10;;
3755;SDS011;1893;52.526;13.360;2022-07-29T05:19:32;6.30;;;3.27;;
3755;SDS011;1893;52.526;13.360;2022-07-29T05:21:58;6.37;;;3.30;;
3755;SDS011;1893;52.526;13.360;2022-07-29T05:24:24;9.80;;;3.97;;
3755;SDS011;1893;52.526;13.360;2022-07-29T05:26:50;3.77;;;3.23;;
3755;SDS011;1893;52.526;13.360;2022-07-29T05:29:16;10.10;;;3.30;;
3755;SDS011;1893;52.526;13.360;2022-07-29T05:31:41;4.67;;;3.00;;
3755;SDS011;1893;52.526;13.360;2022-07-29T05:34:07;4.17;;;3.27;;
3755;SDS011;1893;52.526;13.360;2022-07-29T05:36:32;7.13;;;4.07;;
3755;SDS011;1893;52.526;13.360;2022-07-29T05:38:58;12.93;;;3.33;;
3755;SDS011;1893;52.526;13.360;2022-07-29T05:41:23;5.77;;;4.03;;
3755;SDS011;1893;52.526;13.360;2022-07-29T05:43:49;10.20;;;3.53;;
3755;SDS011;1893;52.526;13.360;2022-07-29T05:46:14;6.53;;;3.47;;
3755;SDS011;1893;52.526;13.360;2022-07-29T05:48:40;4.00;;;3.40;;
3755;SDS011;1893;52.526;13.360;2022-07-29T05:51:05;12.00;;;3.00;;
3755;SDS011;1893;52.526;13.360;2022-07-29T05:53:31;6.43;;;3.50;;
3755;SDS011;1893;52.526;13.360;2022-07-29T05:55:56;8.30;;;3.57;;
3755;SDS011;1893;52.526;13.360;2022-07-29T05:58:22;5.30;;;2.90;;
3755;SDS011;1893;52.526;13.360;2022-07-29T06:00:48;6.70;;;3.30;;
3755;SDS011;1893;52.526;13.360;2022-07-29T06:03:13;7.40;;;4.07;;
3755;SDS011;1893;52.526;13.360;2022-07-29T06:05:39;8.47;;;2.97;;
3755;SDS011;1893;52.526;13.360;2022-07-29T06:08:04;7.33;;;3.37;;
3755;SDS011;1893;52.526;13.360;2022-07-29T06:10:34;4.43;;;3.60;;
3755;SDS011;1893;52.526;13.360;2022-07-29T06:13:00;4.93;;;3.10;;
3755;SDS011;1893;52.526;13.360;2022-07-29T06:15:25;5.20;;;3.20;;
3755;SDS011;1893;52.526;13.360;2022-07-29T06:17:51;8.57;;;3.07;;
3755;SDS011;1893;52.526;13.360;2022-07-29T06:20:17;10.70;;;3.57;;
3755;SDS011;1893;52.526;13.360;2022-07-29T06:22:43;4.73;;;3.07;;
3755;SDS011;1893;52.526;13.360;2022-07-29T06:25:08;11.27;;;4.33;;
3755;SDS011;1893;52.526;13.360;2022-07-29T06:27:34;4.70;;;2.63;;
3755;SDS011;1893;52.526;13.360;2022-07-29T06:30:00;6.17;;;2.90;;
3755;SDS011;1893;52.526;13.360;2022-07-29T06:32:26;4.23;;;3.20;;
3755;SDS011;1893;52.526;13.360;2022-07-29T06:34:52;6.77;;;3.50;;
3755;SDS011;1893;52.526;13.360;2022-07-29T06:37:18;5.63;;;3.50;;
3755;SDS011;1893;52.526;13.360;2022-07-29T06:39:43;11.43;;;3.67;;
3755;SDS011;1893;52.526;13.360;2022-07-29T06:42:09;3.30;;;2.60;;
3755;SDS011;1893;52.526;13.360;2022-07-29T06:44:35;8.33;;;3.40;;
3755;SDS011;1893;52.526;13.360;2022-07-29T06:47:00;7.00;;;3.50;;
3755;SDS011;1893;52.526;13.360;2022-07-29T06:49:26;5.40;;;3.50;;
3755;SDS011;1893;52.526;13.360;2022-07-29T06:51:52;7.27;;;2.83;;
3755;SDS011;1893;52.526;13.360;2022-07-29T06:54:18;6.73;;;3.30;;
3755;SDS011;1893;52.526;13.360;2022-07-29T06:56:44;8.87;;;3.60;;
3755;SDS011;1893;52.526;13.360;2022-07-29T06:59:10;5.43;;;3.23;;
3755;SDS011;1893;52.526;13.360;2022-07-29T07:01:37;7.97;;;3.50;;
3755;SDS011;1893;52.526;13.360;2022-07-29T07:04:05;3.83;;;3.20;;
3755;SDS011;1893;52.526;13.360;2022-07-29T07:06:31;7.40;;;3.80;;
3755;SDS011;1893;52.526;13.360;2022-07-29T07:08:57;9.47;;;3.33;;
3755;SDS011;1893;52.526;13.360;2022-07-29T07:11:22;7.70;;;3.60;;
3755;SDS011;1893;52.526;13.360;2022-07-29T07:13:48;7.53;;;3.43;;
3755;SDS011;1893;52.526;13.360;2022-07-29T07:16:13;5.67;;;3.27;;
3755;SDS011;1893;52.526;13.360;2022-07-29T07:18:39;7.97;;;3.77;;
3755;SDS011;1893;52.526;13.360;2022-07-29T07:21:05;10.40;;;3.33;;
3755;SDS011;1893;52.526;13.360;2022-07-29T07:23:31;6.80;;;3.63;;
3755;SDS011;1893;52.526;13.360;2022-07-29T07:25:56;7.17;;;2.97;;
3755;SDS011;1893;52.526;13.360;2022-07-29T07:28:22;11.80;;;3.13;;
3755;SDS011;1893;52.526;13.360;2022-07-29T07:30:48;5.33;;;2.80;;
3755;SDS011;1893;52.526;13.360;2022-07-29T07:33:13;6.73;;;3.43;;
3755;SDS011;1893;52.526;13.360;2022-07-29T07:35:39;11.43;;;3.27;;
3755;SDS011;1893;52.526;13.360;2022-07-29T07:38:06;5.47;;;2.90;;
3755;SDS011;1893;52.526;13.360;2022-07-29T07:40:31;6.20;;;3.00;;
3755;SDS011;1893;52.526;13.360;2022-07-29T07:42:57;9.07;;;2.80;;
3755;SDS011;1893;52.526;13.360;2022-07-29T07:45:23;8.00;;;2.83;;
3755;SDS011;1893;52.526;13.360;2022-07-29T07:47:49;5.13;;;2.23;;
3755;SDS011;1893;52.526;13.360;2022-07-29T07:50:15;7.23;;;3.00;;
3755;SDS011;1893;52.526;13.360;2022-07-29T07:52:45;5.13;;;3.07;;
3755;SDS011;1893;52.526;13.360;2022-07-29T07:55:12;8.70;;;2.10;;
3755;SDS011;1893;52.526;13.360;2022-07-29T07:57:38;5.17;;;3.13;;
3755;SDS011;1893;52.526;13.360;2022-07-29T08:00:03;6.10;;;2.30;;
3755;SDS011;1893;52.526;13.360;2022-07-29T08:02:30;3.50;;;3.00;;
3755;SDS011;1893;52.526;13.360;2022-07-29T08:05:07;4.83;;;2.53;;
3755;SDS011;1893;52.526;13.360;2022-07-29T08:07:37;4.40;;;2.47;;
3755;SDS011;1893;52.526;13.360;2022-07-29T08:10:03;5.87;;;2.57;;
3755;SDS011;1893;52.526;13.360;2022-07-29T08:12:32;6.80;;;1.90;;
3755;SDS011;1893;52.526;13.360;2022-07-29T08:14:58;9.10;;;2.20;;
3755;SDS011;1893;52.526;13.360;2022-07-29T08:17:23;5.07;;;2.63;;
3755;SDS011;1893;52.526;13.360;2022-07-29T08:19:49;5.53;;;2.53;;
3755;SDS011;1893;52.526;13.360;2022-07-29T08:22:15;4.80;;;2.43;;
3755;SDS011;1893;52.526;13.360;2022-07-29T08:24:40;4.57;;;2.30;;
3755;SDS011;1893;52.526;13.360;2022-07-29T08:27:09;2.67;;;2.13;;
3755;SDS011;1893;52.526;13.360;2022-07-29T08:29:36;3.93;;;1.83;;
3755;SDS011;1893;52.526;13.360;2022-07-29T08:32:02;3.40;;;2.10;;
3755;SDS011;1893;52.526;13.360;2022-07-29T08:34:28;4.13;;;1.70;;
3755;SDS011;1893;52.526;13.360;2022-07-29T08:36:54;3.90;;;2.13;;
3755;SDS011;1893;52.526;13.360;2022-07-29T08:39:20;1.80;;;1.63;;
3755;SDS011;1893;52.526;13.360;2022-07-29T08:41:46;9.07;;;2.30;;
3755;SDS011;1893;52.526;13.360;2022-07-29T08:44:13;5.40;;;2.17;;
3755;SDS011;1893;52.526;13.360;2022-07-29T08:46:46;8.83;;;2.57;;
3755;SDS011;1893;52.526;13.360;2022-07-29T08:49:14;6.17;;;2.40;;
3755;SDS011;1893;52.526;13.360;2022-07-29T08:51:40;2.67;;;1.90;;
3755;SDS011;1893;52.526;13.360;2022-07-29T08:54:07;4.40;;;2.20;;
3755;SDS011;1893;52.526;13.360;2022-07-29T08:56:34;4.40;;;2.07;;
3755;SDS011;1893;52.526;13.360;2022-07-29T08:58:59;8.80;;;3.50;;
3755;SDS011;1893;52.526;13.360;2022-07-29T09:01:29;2.70;;;2.13;;
3755;SDS011;1893;52.526;13.360;2022-07-29T09:03:58;5.57;;;2.00;;
3755;SDS011;1893;52.526;13.360;2022-07-29T09:06:26;10.57;;;2.43;;
3755;SDS011;1893;52.526;13.360;2022-07-29T09:08:58;4.03;;;3.00;;
3755;SDS011;1893;52.526;13.360;2022-07-29T09:11:24;5.10;;;2.73;;
3755;SDS011;1893;52.526;13.360;2022-07-29T09:13:50;5.53;;;2.17;;
3755;SDS011;1893;52.526;13.360;2022-07-29T09:16:15;4.27;;;3.63;;
3755;SDS011;1893;52.526;13.360;2022-07-29T09:18:42;3.83;;;2.17;;
3755;SDS011;1893;52.526;13.360;2022-07-29T09:21:10;8.67;;;2.67;;
3755;SDS011;1893;52.526;13.360;2022-07-29T09:24:09;4.07;;;2.00;;
3755;SDS011;1893;52.526;13.360;2022-07-29T09:26:39;3.27;;;2.60;;
3755;SDS011;1893;52.526;13.360;2022-07-29T09:29:12;4.10;;;2.20;;
3755;SDS011;1893;52.526;13.360;2022-07-29T09:31:41;4.60;;;2.03;;
3755;SDS011;1893;52.526;13.360;2022-07-29T09:34:12;5.30;;;3.50;;
3755;SDS011;1893;52.526;13.360;2022-07-29T09:36:40;3.43;;;2.00;;
3755;SDS011;1893;52.526;13.360;2022-07-29T09:39:07;4.00;;;2.33;;
3755;SDS011;1893;52.526;13.360;2022-07-29T09:44:12;2.50;;;2.27;;
3755;SDS011;1893;52.526;13.360;2022-07-29T09:46:37;7.60;;;3.23;;
3755;SDS011;1893;52.526;13.360;2022-07-29T09:51:32;8.40;;;2.23;;
3755;SDS011;1893;52.526;13.360;2022-07-29T09:53:58;5.40;;;2.50;;
3755;SDS011;1893;52.526;13.360;2022-07-29T09:56:37;4.37;;;2.20;;
3755;SDS011;1893;52.526;13.360;2022-07-29T09:59:07;11.47;;;2.77;;
3755;SDS011;1893;52.526;13.360;2022-07-29T10:01:33;4.30;;;2.23;;
3755;SDS011;1893;52.526;13.360;2022-07-29T10:04:00;6.60;;;2.10;;
3755;SDS011;1893;52.526;13.360;2022-07-29T10:06:27;3.63;;;2.10;;
3755;SDS011;1893;52.526;13.360;2022-07-29T10:08:53;2.43;;;2.23;;
3755;SDS011;1893;52.526;13.360;2022-07-29T10:11:19;3.23;;;1.80;;
3755;SDS011;1893;52.526;13.360;2022-07-29T10:13:46;3.63;;;1.90;;
3755;SDS011;1893;52.526;13.360;2022-07-29T10:16:12;3.93;;;2.13;;
3755;SDS011;1893;52.526;13.360;2022-07-29T10:18:40;3.40;;;2.30;;
3755;SDS011;1893;52.526;13.360;2022-07-29T10:21:07;6.07;;;1.60;;
3755;SDS011;1893;52.526;13.360;2022-07-29T10:23:34;5.40;;;1.73;;
3755;SDS011;1893;52.526;13.360;2022-07-29T10:26:00;2.27;;;2.07;;
3755;SDS011;1893;52.526;13.360;2022-07-29T10:28:27;23.67;;;2.13;;
3755;SDS011;1893;52.526;13.360;2022-07-29T10:31:02;2.80;;;1.87;;
3755;SDS011;1893;52.526;13.360;2022-07-29T10:33:47;2.40;;;1.73;;
3755;SDS011;1893;52.526;13.360;2022-07-29T10:44:39;3.10;;;1.73;;
3755;SDS011;1893;52.526;13.360;2022-07-29T10:47:05;4.67;;;2.07;;
3755;SDS011;1893;52.526;13.360;2022-07-29T10:49:31;2.90;;;2.20;;
3755;SDS011;1893;52.526;13.360;2022-07-29T10:52:07;2.57;;;1.90;;
3755;SDS011;1893;52.526;13.360;2022-07-29T10:59:49;4.03;;;1.77;;
3755;SDS011;1893;52.526;13.360;2022-07-29T11:05:07;2.43;;;1.77;;
3755;SDS011;1893;52.526;13.360;2022-07-29T11:10:41;5.57;;;2.03;;
3755;SDS011;1893;52.526;13.360;2022-07-29T11:13:07;5.87;;;2.30;;
3755;SDS011;1893;52.526;13.360;2022-07-29T11:15:51;2.57;;;1.80;;
3755;SDS011;1893;52.526;13.360;2022-07-29T11:18:22;8.77;;;2.30;;
3755;SDS011;1893;52.526;13.360;2022-07-29T11:20:48;3.50;;;1.87;;
3755;SDS011;1893;52.526;13.360;2022-07-29T11:23:30;2.13;;;1.80;;
3755;SDS011;1893;52.526;13.360;2022-07-29T11:31:31;5.20;;;2.10;;
3755;SDS011;1893;52.526;13.360;2022-07-29T11:39:31;3.67;;;1.90;;
3755;SDS011;1893;52.526;13.360;2022-07-29T11:45:02;5.10;;;2.27;;
3755;SDS011;1893;52.526;13.360;2022-07-29T11:47:32;2.63;;;2.00;;
3755;SDS011;1893;52.526;13.360;2022-07-29T11:50:00;2.53;;;1.90;;
3755;SDS011;1893;52.526;13.360;2022-07-29T11:55:22;7.97;;;2.47;;
3755;SDS011;1893;52.526;13.360;2022-07-29T12:02:50;6.00;;;2.17;;
3755;SDS011;1893;52.526;13.360;2022-07-29T12:05:16;2.60;;;2.20;;
3755;SDS011;1893;52.526;13.360;2022-07-29T12:07:43;6.80;;;2.93;;
3755;SDS011;1893;52.526;13.360;2022-07-29T12:10:08;3.50;;;2.83;;
3755;SDS011;1893;52.526;13.360;2022-07-29T12:12:34;3.37;;;2.00;;
3755;SDS011;1893;52.526;13.360;2022-07-29T12:15:10;7.23;;;2.73;;
3755;SDS011;1893;52.526;13.360;2022-07-29T12:17:44;9.40;;;2.23;;
3755;SDS011;1893;52.526;13.360;2022-07-29T12:20:11;8.80;;;2.80;;
3755;SDS011;1893;52.526;13.360;2022-07-29T12:22:38;7.10;;;2.90;;
3755;SDS011;1893;52.526;13.360;2022-07-29T12:25:07;4.40;;;2.73;;
3755;SDS011;1893;52.526;13.360;2022-07-29T12:27:34;5.40;;;3.13;;
3755;SDS011;1893;52.526;13.360;2022-07-29T12:30:05;2.90;;;2.70;;
3755;SDS011;1893;52.526;13.360;2022-07-29T12:32:42;4.00;;;2.67;;
3755;SDS011;1893;52.526;13.360;2022-07-29T12:35:15;9.10;;;2.93;;
3755;SDS011;1893;52.526;13.360;2022-07-29T12:37:43;4.40;;;3.40;;
3755;SDS011;1893;52.526;13.360;2022-07-29T12:40:12;2.90;;;2.70;;
3755;SDS011;1893;52.526;13.360;2022-07-29T12:42:40;3.60;;;3.10;;
3755;SDS011;1893;52.526;13.360;2022-07-29T12:45:06;3.60;;;3.30;;
3755;SDS011;1893;52.526;13.360;2022-07-29T12:47:32;3.73;;;2.93;;
3755;SDS011;1893;52.526;13.360;2022-07-29T12:50:12;3.40;;;3.10;;
3755;SDS011;1893;52.526;13.360;2022-07-29T12:52:40;4.87;;;3.27;;
3755;SDS011;1893;52.526;13.360;2022-07-29T12:55:06;2.90;;;2.63;;
3755;SDS011;1893;52.526;13.360;2022-07-29T12:57:32;5.80;;;3.00;;
3755;SDS011;1893;52.526;13.360;2022-07-29T13:00:10;5.60;;;3.20;;
3755;SDS011;1893;52.526;13.360;2022-07-29T13:02:37;3.57;;;3.27;;
3755;SDS011;1893;52.526;13.360;2022-07-29T13:05:05;5.43;;;3.27;;
3755;SDS011;1893;52.526;13.360;2022-07-29T13:07:33;3.50;;;3.30;;
3755;SDS011;1893;52.526;13.360;2022-07-29T13:10:11;2.53;;;2.43;;
3755;SDS011;1893;52.526;13.360;2022-07-29T13:15:34;3.73;;;3.33;;
3755;SDS011;1893;52.526;13.360;2022-07-29T13:18:01;3.57;;;3.27;;
3755;SDS011;1893;52.526;13.360;2022-07-29T13:20:27;3.47;;;3.20;;
3755;SDS011;1893;52.526;13.360;2022-07-29T13:22:57;3.53;;;2.57;;
3755;SDS011;1893;52.526;13.360;2022-07-29T13:25:28;3.13;;;2.80;;
3755;SDS011;1893;52.526;13.360;2022-07-29T13:27:56;5.40;;;3.30;;
3755;SDS011;1893;52.526;13.360;2022-07-29T13:30:23;3.00;;;2.80;;
3755;SDS011;1893;52.526;13.360;2022-07-29T13:32:49;3.93;;;3.10;;
3755;SDS011;1893;52.526;13.360;2022-07-29T13:35:16;6.37;;;3.07;;
3755;SDS011;1893;52.526;13.360;2022-07-29T13:37:42;3.27;;;3.07;;
3755;SDS011;1893;52.526;13.360;2022-07-29T13:40:08;5.03;;;3.13;;
3755;SDS011;1893;52.526;13.360;2022-07-29T13:42:35;4.00;;;2.90;;
3755;SDS011;1893;52.526;13.360;2022-07-29T13:45:01;7.30;;;3.40;;
3755;SDS011;1893;52.526;13.360;2022-07-29T13:47:28;3.77;;;3.30;;
3755;SDS011;1893;52.526;13.360;2022-07-29T13:49:54;6.60;;;2.93;;
3755;SDS011;1893;52.526;13.360;2022-07-29T13:52:19;6.87;;;3.50;;
3755;SDS011;1893;52.526;13.360;2022-07-29T13:54:45;5.97;;;2.67;;
3755;SDS011;1893;52.526;13.360;2022-07-29T13:57:11;7.67;;;2.67;;
3755;SDS011;1893;52.526;13.360;2022-07-29T13:59:37;5.93;;;3.13;;
3755;SDS011;1893;52.526;13.360;2022-07-29T14:02:07;3.20;;;2.90;;
3755;SDS011;1893;52.526;13.360;2022-07-29T14:04:33;6.97;;;2.93;;
3755;SDS011;1893;52.526;13.360;2022-07-29T14:06:59;4.63;;;4.20;;
3755;SDS011;1893;52.526;13.360;2022-07-29T14:09:25;7.47;;;3.60;;
3755;SDS011;1893;52.526;13.360;2022-07-29T14:11:50;5.57;;;3.60;;
3755;SDS011;1893;52.526;13.360;2022-07-29T14:14:17;4.63;;;2.53;;
3755;SDS011;1893;52.526;13.360;2022-07-29T14:16:44;4.80;;;3.10;;
3755;SDS011;1893;52.526;13.360;2022-07-29T14:19:09;3.90;;;3.13;;
3755;SDS011;1893;52.526;13.360;2022-07-29T14:21:36;6.00;;;3.60;;
3755;SDS011;1893;52.526;13.360;2022-07-29T14:24:02;5.07;;;3.50;;
3755;SDS011;1893;52.526;13.360;2022-07-29T14:26:28;5.80;;;3.60;;
3755;SDS011;1893;52.526;13.360;2022-07-29T14:28:54;4.17;;;3.80;;
3755;SDS011;1893;52.526;13.360;2022-07-29T14:31:19;3.30;;;3.00;;
3755;SDS011;1893;52.526;13.360;2022-07-29T14:33:45;4.40;;;4.10;;
3755;SDS011;1893;52.526;13.360;2022-07-29T14:36:11;5.03;;;3.20;;
3755;SDS011;1893;52.526;13.360;2022-07-29T14:38:36;5.43;;;3.43;;
3755;SDS011;1893;52.526;13.360;2022-07-29T14:41:02;4.50;;;2.90;;
3755;SDS011;1893;52.526;13.360;2022-07-29T14:43:28;3.77;;;3.47;;
3755;SDS011;1893;52.526;13.360;2022-07-29T14:45:53;4.17;;;3.80;;
3755;SDS011;1893;52.526;13.360;2022-07-29T14:48:19;5.97;;;3.83;;
3755;SDS011;1893;52.526;13.360;2022-07-29T14:50:44;3.87;;;3.57;;
3755;SDS011;1893;52.526;13.360;2022-07-29T14:53:10;4.43;;;3.30;;
3755;SDS011;1893;52.526;13.360;2022-07-29T14:55:38;4.03;;;3.63;;
3755;SDS011;1893;52.526;13.360;2022-07-29T14:58:04;7.30;;;3.97;;
3755;SDS011;1893;52.526;13.360;2022-07-29T15:00:30;5.13;;;3.80;;
3755;SDS011;1893;52.526;13.360;2022-07-29T15:02:57;4.30;;;3.53;;
3755;SDS011;1893;52.526;13.360;2022-07-29T15:05:24;4.67;;;4.27;;
3755;SDS011;1893;52.526;13.360;2022-07-29T15:07:49;5.93;;;5.43;;
3755;SDS011;1893;52.526;13.360;2022-07-29T15:10:15;4.00;;;3.60;;
3755;SDS011;1893;52.526;13.360;2022-07-29T15:12:41;4.17;;;3.47;;
3755;SDS011;1893;52.526;13.360;2022-07-29T15:15:07;4.03;;;3.63;;
3755;SDS011;1893;52.526;13.360;2022-07-29T15:17:33;4.90;;;3.47;;
3755;SDS011;1893;52.526;13.360;2022-07-29T15:19:59;5.90;;;4.20;;
3755;SDS011;1893;52.526;13.360;2022-07-29T15:22:25;8.27;;;3.67;;
3755;SDS011;1893;52.526;13.360;2022-07-29T15:24:51;4.63;;;3.47;;
3755;SDS011;1893;52.526;13.360;2022-07-29T15:27:16;3.20;;;2.90;;
3755;SDS011;1893;52.526;13.360;2022-07-29T15:29:43;2.97;;;2.70;;
3755;SDS011;1893;52.526;13.360;2022-07-29T15:32:09;5.53;;;3.00;;
3755;SDS011;1893;52.526;13.360;2022-07-29T15:34:36;3.07;;;2.83;;
3755;SDS011;1893;52.526;13.360;2022-07-29T15:37:03;5.00;;;3.27;;
3755;SDS011;1893;52.526;13.360;2022-07-29T15:39:29;3.30;;;3.00;;
3755;SDS011;1893;52.526;13.360;2022-07-29T15:41:55;3.63;;;2.90;;
3755;SDS011;1893;52.526;13.360;2022-07-29T15:44:20;3.80;;;3.20;;
3755;SDS011;1893;52.526;13.360;2022-07-29T15:46:46;6.30;;;3.80;;
3755;SDS011;1893;52.526;13.360;2022-07-29T15:49:28;3.73;;;3.40;;
3755;SDS011;1893;52.526;13.360;2022-07-29T15:52:00;3.70;;;3.37;;
3755;SDS011;1893;52.526;13.360;2022-07-29T15:54:28;5.27;;;3.60;;
3755;SDS011;1893;52.526;13.360;2022-07-29T15:56:54;3.87;;;3.57;;
3755;SDS011;1893;52.526;13.360;2022-07-29T15:59:20;8.53;;;3.30;;
3755;SDS011;1893;52.526;13.360;2022-07-29T16:01:46;8.93;;;3.03;;
3755;SDS011;1893;52.526;13.360;2022-07-29T16:04:12;5.30;;;2.70;;
3755;SDS011;1893;52.526;13.360;2022-07-29T16:06:38;3.33;;;3.03;;
3755;SDS011;1893;52.526;13.360;2022-07-29T16:09:04;2.93;;;2.73;;
3755;SDS011;1893;52.526;13.360;2022-07-29T16:11:29;2.87;;;2.67;;
3755;SDS011;1893;52.526;13.360;2022-07-29T16:13:55;3.80;;;2.80;;